sensor_id;sensor_type;location;lat;lon;timestamp;pressure;altitude;pressure_sealevel;temperature;humidity
45050;BME280;61798;48.048;-1.928;2022-12-29T02:03:12;99799.97;;;7.82;100.00
45050;BME280;61798;48.048;-1.928;2022-12-29T02:20:09;99812.28;;;7.83;100.00
45050;BME280;61798;48.048;-1.928;2022-12-29T02:43:48;99838.03;;;8.05;100.00
45050;BME280;61798;48.048;-1.928;2022-12-29T02:47:51;99778.91;;;7.66;100.00
45050;BME280;61798;48.048;-1.928;2022-12-29T02:50:37;99775.81;;;7.62;100.00
45050;BME280;61798;48.048;-1.928;2022-12-29T03:04:25;99803.31;;;7.63;100.00
45050;BME280;61798;48.048;-1.928;2022-12-29T03:08:21;99848.06;;;7.96;100.00
45050;BME280;61798;48.048;-1.928;2022-12-29T03:11:38;99858.50;;;7.91;100.00
45050;BME280;61798;48.048;-1.928;2022-12-29T03:28:51;99817.31;;;7.43;100.00
45050;BME280;61798;48.048;-1.928;2022-12-29T03:31:32;99868.31;;;7.83;100.00
45050;BME280;61798;48.048;-1.928;2022-12-29T03:34:09;99843.50;;;7.61;100.00
45050;BME280;61798;48.048;-1.928;2022-12-29T03:36:50;99857.66;;;7.61;100.00
45050;BME280;61798;48.048;-1.928;2022-12-29T03:39:16;99887.28;;;7.74;100.00
45050;BME280;61798;48.048;-1.928;2022-12-29T03:47:28;99877.41;;;7.67;100.00
45050;BME280;61798;48.048;-1.928;2022-12-29T03:50:11;99854.06;;;7.47;100.00
45050;BME280;61798;48.048;-1.928;2022-12-29T04:07:38;99820.03;;;7.05;100.00
45050;BME280;61798;48.048;-1.928;2022-12-29T04:54:21;99918.38;;;7.00;100.00
45050;BME280;61798;48.048;-1.928;2022-12-29T05:16:58;99969.16;;;6.98;100.00
45050;BME280;61798;48.048;-1.928;2022-12-29T05:20:00;99963.38;;;6.95;100.00
45050;BME280;61798;48.048;-1.928;2022-12-29T05:22:53;99937.50;;;6.73;100.00
45050;BME280;61798;48.048;-1.928;2022-12-29T05:26:08;99942.94;;;6.80;100.00
45050;BME280;61798;48.048;-1.928;2022-12-29T05:29:22;99915.94;;;6.53;100.00
45050;BME280;61798;48.048;-1.928;2022-12-29T05:32:46;100001.22;;;7.05;100.00
45050;BME280;61798;48.048;-1.928;2022-12-29T05:35:39;99935.13;;;6.63;100.00
45050;BME280;61798;48.048;-1.928;2022-12-29T07:00:28;99989.25;;;6.01;100.00
45050;BME280;61798;48.048;-1.928;2022-12-29T07:02:55;100002.28;;;6.20;100.00
45050;BME280;61798;48.048;-1.928;2022-12-29T07:06:04;99981.91;;;6.03;100.00
45050;BME280;61798;48.048;-1.928;2022-12-29T07:08:24;100055.63;;;6.42;100.00
45050;BME280;61798;48.048;-1.928;2022-12-29T07:10:51;99996.59;;;5.99;100.00
45050;BME280;61798;48.048;-1.928;2022-12-29T07:13:20;100041.38;;;6.34;100.00
45050;BME280;61798;48.048;-1.928;2022-12-29T07:16:20;100044.13;;;6.26;100.00
45050;BME280;61798;48.048;-1.928;2022-12-29T07:19:26;100055.59;;;6.27;100.00
45050;BME280;61798;48.048;-1.928;2022-12-29T07:27:10;100070.31;;;6.14;100.00
45050;BME280;61798;48.048;-1.928;2022-12-29T07:32:55;100081.97;;;6.13;100.00
45050;BME280;61798;48.048;-1.928;2022-12-29T07:36:01;100016.09;;;5.68;100.00
45050;BME280;61798;48.048;-1.928;2022-12-29T07:39:13;100068.75;;;5.96;100.00
45050;BME280;61798;48.048;-1.928;2022-12-29T07:42:01;100071.69;;;6.01;100.00
45050;BME280;61798;48.048;-1.928;2022-12-29T07:44:49;100062.50;;;5.89;100.00
45050;BME280;61798;48.048;-1.928;2022-12-29T07:47:22;100088.69;;;6.00;100.00
45050;BME280;61798;48.048;-1.928;2022-12-29T07:50:12;100108.59;;;6.13;100.00
45050;BME280;61798;48.048;-1.928;2022-12-29T07:53:12;100112.25;;;6.12;100.00
45050;BME280;61798;48.048;-1.928;2022-12-29T07:55:40;100134.41;;;6.28;100.00
45050;BME280;61798;48.048;-1.928;2022-12-29T07:58:04;100094.00;;;6.00;100.00
45050;BME280;61798;48.048;-1.928;2022-12-29T08:04:01;100123.16;;;6.17;100.00
45050;BME280;61798;48.048;-1.928;2022-12-29T08:06:59;100126.84;;;6.16;100.00
45050;BME280;61798;48.048;-1.928;2022-12-29T08:09:13;100131.66;;;6.21;100.00
45050;BME280;61798;48.048;-1.928;2022-12-29T08:11:50;100091.97;;;6.02;100.00
45050;BME280;61798;48.048;-1.928;2022-12-29T08:14:41;100138.91;;;6.27;100.00
45050;BME280;61798;48.048;-1.928;2022-12-29T08:21:58;100148.56;;;6.28;100.00
45050;BME280;61798;48.048;-1.928;2022-12-29T08:24:58;100068.91;;;5.71;100.00
45050;BME280;61798;48.048;-1.928;2022-12-29T08:28:15;100127.53;;;6.10;100.00
45050;BME280;61798;48.048;-1.928;2022-12-29T08:45:54;100122.94;;;5.95;100.00
45050;BME280;61798;48.048;-1.928;2022-12-29T08:49:46;100114.66;;;5.90;100.00
45050;BME280;61798;48.048;-1.928;2022-12-29T09:09:44;100162.19;;;6.25;100.00
45050;BME280;61798;48.048;-1.928;2022-12-29T09:22:06;100164.84;;;6.25;100.00
45050;BME280;61798;48.048;-1.928;2022-12-29T09:24:37;100210.25;;;6.55;100.00
45050;BME280;61798;48.048;-1.928;2022-12-29T09:27:56;100110.78;;;6.01;100.00
45050;BME280;61798;48.048;-1.928;2022-12-29T09:40:35;100170.91;;;6.42;100.00
45050;BME280;61798;48.048;-1.928;2022-12-29T09:46:59;100167.41;;;6.42;100.00
45050;BME280;61798;48.048;-1.928;2022-12-29T09:58:14;100209.13;;;6.73;100.00
45050;BME280;61798;48.048;-1.928;2022-12-29T10:03:54;100168.50;;;6.56;100.00
45050;BME280;61798;48.048;-1.928;2022-12-29T10:07:09;100233.38;;;7.02;100.00
45050;BME280;61798;48.048;-1.928;2022-12-29T10:23:51;100187.56;;;7.07;100.00
45050;BME280;61798;48.048;-1.928;2022-12-29T10:26:28;100214.59;;;7.34;100.00
45050;BME280;61798;48.048;-1.928;2022-12-29T10:29:13;100169.53;;;7.09;100.00
45050;BME280;61798;48.048;-1.928;2022-12-29T10:35:21;100141.34;;;7.15;100.00
45050;BME280;61798;48.048;-1.928;2022-12-29T10:38:30;100219.41;;;7.69;100.00
45050;BME280;61798;48.048;-1.928;2022-12-29T11:56:54;100227.13;;;8.47;100.00
45050;BME280;61798;48.048;-1.928;2022-12-29T12:15:04;100224.34;;;8.99;100.00
45050;BME280;61798;48.048;-1.928;2022-12-29T12:21:34;100222.88;;;8.97;100.00
45050;BME280;61798;48.048;-1.928;2022-12-29T12:31:56;100179.13;;;9.05;100.00
45050;BME280;61798;48.048;-1.928;2022-12-29T13:07:58;100234.03;;;8.04;100.00
45050;BME280;61798;48.048;-1.928;2022-12-29T15:29:44;100217.34;;;7.26;100.00
45050;BME280;61798;48.048;-1.928;2022-12-29T15:32:19;100255.16;;;7.45;100.00
45050;BME280;61798;48.048;-1.928;2022-12-29T15:34:59;100258.94;;;7.50;100.00
45050;BME280;61798;48.048;-1.928;2022-12-29T15:37:34;100272.34;;;7.42;100.00
45050;BME280;61798;48.048;-1.928;2022-12-29T15:40:32;100278.25;;;7.53;100.00
45050;BME280;61798;48.048;-1.928;2022-12-29T15:49:29;100277.66;;;7.27;100.00
45050;BME280;61798;48.048;-1.928;2022-12-29T15:51:48;100273.22;;;7.19;100.00
45050;BME280;61798;48.048;-1.928;2022-12-29T16:04:15;100264.88;;;6.98;100.00
45050;BME280;61798;48.048;-1.928;2022-12-29T16:07:27;100240.75;;;6.76;100.00
45050;BME280;61798;48.048;-1.928;2022-12-29T16:10:49;100301.72;;;6.95;100.00
45050;BME280;61798;48.048;-1.928;2022-12-29T16:16:39;100294.38;;;6.65;100.00
45050;BME280;61798;48.048;-1.928;2022-12-29T16:19:12;100286.28;;;6.58;100.00
45050;BME280;61798;48.048;-1.928;2022-12-29T16:22:20;100310.72;;;6.62;100.00
45050;BME280;61798;48.048;-1.928;2022-12-29T16:25:59;100253.72;;;6.16;100.00
45050;BME280;61798;48.048;-1.928;2022-12-29T16:28:54;100229.66;;;6.00;100.00
45050;BME280;61798;48.048;-1.928;2022-12-29T16:31:34;100320.56;;;6.53;100.00
45050;BME280;61798;48.048;-1.928;2022-12-29T16:33:51;100307.53;;;6.34;100.00
45050;BME280;61798;48.048;-1.928;2022-12-29T16:36:02;100323.34;;;6.36;100.00
45050;BME280;61798;48.048;-1.928;2022-12-29T16:41:34;100258.81;;;5.77;100.00
45050;BME280;61798;48.048;-1.928;2022-12-29T16:44:33;100313.28;;;5.98;100.00
45050;BME280;61798;48.048;-1.928;2022-12-29T16:47:26;100251.97;;;5.82;100.00
45050;BME280;61798;48.048;-1.928;2022-12-29T16:50:01;100330.06;;;6.15;100.00
45050;BME280;61798;48.048;-1.928;2022-12-29T16:52:33;100326.25;;;6.09;100.00
45050;BME280;61798;48.048;-1.928;2022-12-29T16:55:26;100266.34;;;5.56;100.00
45050;BME280;61798;48.048;-1.928;2022-12-29T16:57:59;100284.75;;;5.66;100.00
45050;BME280;61798;48.048;-1.928;2022-12-29T17:00:25;100305.88;;;5.68;100.00
45050;BME280;61798;48.048;-1.928;2022-12-29T17:02:58;100333.28;;;5.85;100.00
45050;BME280;61798;48.048;-1.928;2022-12-29T17:05:35;100338.06;;;5.90;100.00
45050;BME280;61798;48.048;-1.928;2022-12-29T17:08:19;100259.56;;;5.37;100.00
45050;BME280;61798;48.048;-1.928;2022-12-29T17:10:51;100303.38;;;5.66;100.00
45050;BME280;61798;48.048;-1.928;2022-12-29T17:21:20;100340.78;;;5.73;100.00
45050;BME280;61798;48.048;-1.928;2022-12-29T17:28:24;100351.06;;;5.68;100.00
45050;BME280;61798;48.048;-1.928;2022-12-29T17:31:34;100287.97;;;5.28;100.00
45050;BME280;61798;48.048;-1.928;2022-12-29T17:39:36;100374.81;;;5.86;100.00
45050;BME280;61798;48.048;-1.928;2022-12-29T17:46:13;100312.88;;;5.27;100.00
45050;BME280;61798;48.048;-1.928;2022-12-29T17:49:23;100338.63;;;5.43;100.00
45050;BME280;61798;48.048;-1.928;2022-12-29T17:55:59;100397.75;;;5.70;100.00
45050;BME280;61798;48.048;-1.928;2022-12-29T17:58:49;100337.47;;;5.29;100.00
45050;BME280;61798;48.048;-1.928;2022-12-29T18:01:34;100391.09;;;5.66;100.00
45050;BME280;61798;48.048;-1.928;2022-12-29T18:04:41;100347.06;;;5.47;100.00
45050;BME280;61798;48.048;-1.928;2022-12-29T18:11:30;100358.72;;;5.37;100.00
45050;BME280;61798;48.048;-1.928;2022-12-29T18:15:03;100337.63;;;5.27;100.00
45050;BME280;61798;48.048;-1.928;2022-12-29T18:21:31;100352.38;;;5.30;100.00
45050;BME280;61798;48.048;-1.928;2022-12-29T18:24:30;100336.25;;;5.06;100.00
45050;BME280;61798;48.048;-1.928;2022-12-29T18:27:10;100406.41;;;5.64;100.00
45050;BME280;61798;48.048;-1.928;2022-12-29T18:29:37;100395.09;;;5.54;100.00
45050;BME280;61798;48.048;-1.928;2022-12-29T18:32:15;100427.81;;;5.54;100.00
45050;BME280;61798;48.048;-1.928;2022-12-29T18:34:34;100411.88;;;5.54;100.00
45050;BME280;61798;48.048;-1.928;2022-12-29T18:37:30;100410.53;;;5.50;100.00
45050;BME280;61798;48.048;-1.928;2022-12-29T18:40:59;100386.25;;;5.20;100.00
45050;BME280;61798;48.048;-1.928;2022-12-29T18:43:15;100342.06;;;4.93;100.00
45050;BME280;61798;48.048;-1.928;2022-12-29T18:46:22;100344.03;;;4.91;100.00
45050;BME280;61798;48.048;-1.928;2022-12-29T18:48:46;100358.03;;;5.18;100.00
45050;BME280;61798;48.048;-1.928;2022-12-29T18:51:38;100315.31;;;4.86;100.00
45050;BME280;61798;48.048;-1.928;2022-12-29T18:54:42;100324.28;;;4.77;100.00
45050;BME280;61798;48.048;-1.928;2022-12-29T18:57:08;100367.00;;;5.17;100.00
45050;BME280;61798;48.048;-1.928;2022-12-29T18:59:46;100327.28;;;4.91;100.00
45050;BME280;61798;48.048;-1.928;2022-12-29T19:02:31;100330.69;;;4.58;100.00
45050;BME280;61798;48.048;-1.928;2022-12-29T19:05:36;100356.97;;;4.86;100.00
45050;BME280;61798;48.048;-1.928;2022-12-29T19:15:38;100347.97;;;4.79;100.00
45050;BME280;61798;48.048;-1.928;2022-12-29T19:17:54;100368.78;;;4.92;100.00
45050;BME280;61798;48.048;-1.928;2022-12-29T19:20:45;100318.56;;;4.63;100.00
45050;BME280;61798;48.048;-1.928;2022-12-29T19:24:07;100397.19;;;5.08;100.00
45050;BME280;61798;48.048;-1.928;2022-12-29T19:27:53;100374.19;;;4.82;100.00
45050;BME280;61798;48.048;-1.928;2022-12-29T19:31:10;100350.44;;;4.63;100.00
45050;BME280;61798;48.048;-1.928;2022-12-29T19:34:20;100358.88;;;4.59;100.00
45050;BME280;61798;48.048;-1.928;2022-12-29T19:38:04;100407.75;;;4.91;100.00
45050;BME280;61798;48.048;-1.928;2022-12-29T19:49:44;100417.00;;;4.79;100.00
45050;BME280;61798;48.048;-1.928;2022-12-29T19:52:46;100402.63;;;4.54;100.00
45050;BME280;61798;48.048;-1.928;2022-12-29T19:55:35;100430.09;;;4.72;100.00
45050;BME280;61798;48.048;-1.928;2022-12-29T19:59:00;100441.03;;;4.69;100.00
45050;BME280;61798;48.048;-1.928;2022-12-29T20:02:53;100425.81;;;4.44;100.00
45050;BME280;61798;48.048;-1.928;2022-12-29T20:06:15;100374.84;;;4.32;100.00
45050;BME280;61798;48.048;-1.928;2022-12-29T20:08:56;100351.31;;;4.02;100.00
45050;BME280;61798;48.048;-1.928;2022-12-29T20:14:43;100375.13;;;3.94;100.00
45050;BME280;61798;48.048;-1.928;2022-12-29T20:21:49;100393.56;;;4.30;100.00
45050;BME280;61798;48.048;-1.928;2022-12-29T20:24:42;100374.56;;;4.08;100.00
45050;BME280;61798;48.048;-1.928;2022-12-29T20:27:10;100365.91;;;4.06;100.00
45050;BME280;61798;48.048;-1.928;2022-12-29T20:29:35;100355.22;;;3.89;100.00
45050;BME280;61798;48.048;-1.928;2022-12-29T20:32:01;100399.56;;;4.32;100.00
45050;BME280;61798;48.048;-1.928;2022-12-29T20:34:17;100323.47;;;4.06;100.00
45050;BME280;61798;48.048;-1.928;2022-12-29T20:40:00;100395.31;;;4.48;100.00
45050;BME280;61798;48.048;-1.928;2022-12-29T20:42:46;100342.81;;;3.98;100.00
45050;BME280;61798;48.048;-1.928;2022-12-29T20:45:19;100388.25;;;4.22;100.00
45050;BME280;61798;48.048;-1.928;2022-12-29T20:47:46;100347.22;;;3.81;100.00
45050;BME280;61798;48.048;-1.928;2022-12-29T20:50:55;100338.22;;;3.74;100.00
45050;BME280;61798;48.048;-1.928;2022-12-29T20:54:11;100325.25;;;3.70;100.00
45050;BME280;61798;48.048;-1.928;2022-12-29T20:57:31;100406.03;;;4.38;100.00
45050;BME280;61798;48.048;-1.928;2022-12-29T21:03:25;100353.66;;;4.05;100.00
45050;BME280;61798;48.048;-1.928;2022-12-29T21:05:39;100336.91;;;4.05;100.00
45050;BME280;61798;48.048;-1.928;2022-12-29T21:08:18;100343.31;;;3.94;100.00
45050;BME280;61798;48.048;-1.928;2022-12-29T21:10:49;100322.81;;;4.04;100.00
45050;BME280;61798;48.048;-1.928;2022-12-29T21:16:09;100376.38;;;4.43;100.00
45050;BME280;61798;48.048;-1.928;2022-12-29T21:18:39;100322.41;;;3.90;100.00
45050;BME280;61798;48.048;-1.928;2022-12-29T21:21:00;100330.66;;;3.87;100.00
45050;BME280;61798;48.048;-1.928;2022-12-29T21:23:22;100321.66;;;4.07;100.00
45050;BME280;61798;48.048;-1.928;2022-12-29T21:26:42;100294.00;;;3.74;100.00
45050;BME280;61798;48.048;-1.928;2022-12-29T21:54:58;100362.47;;;4.14;100.00
45050;BME280;61798;48.048;-1.928;2022-12-29T21:58:26;100288.16;;;3.70;100.00
45050;BME280;61798;48.048;-1.928;2022-12-29T22:01:12;100264.41;;;3.61;100.00
45050;BME280;61798;48.048;-1.928;2022-12-29T22:04:12;100302.41;;;3.69;100.00
45050;BME280;61798;48.048;-1.928;2022-12-29T22:07:08;100339.94;;;4.18;100.00
45050;BME280;61798;48.048;-1.928;2022-12-29T22:14:01;100336.28;;;4.11;100.00
45050;BME280;61798;48.048;-1.928;2022-12-29T22:16:38;100252.41;;;3.48;100.00
45050;BME280;61798;48.048;-1.928;2022-12-29T22:18:57;100308.63;;;3.87;100.00
45050;BME280;61798;48.048;-1.928;2022-12-29T22:22:03;100278.25;;;3.73;100.00
45050;BME280;61798;48.048;-1.928;2022-12-29T22:24:18;100304.47;;;3.84;100.00
45050;BME280;61798;48.048;-1.928;2022-12-29T22:26:36;100301.13;;;4.09;100.00
45050;BME280;61798;48.048;-1.928;2022-12-29T22:28:53;100245.19;;;3.58;100.00
45050;BME280;61798;48.048;-1.928;2022-12-29T22:31:27;100235.94;;;3.63;100.00
45050;BME280;61798;48.048;-1.928;2022-12-29T22:39:21;100270.84;;;3.85;100.00
45050;BME280;61798;48.048;-1.928;2022-12-29T22:42:26;100233.88;;;3.83;100.00
45050;BME280;61798;48.048;-1.928;2022-12-29T22:44:59;100289.84;;;4.07;100.00
45050;BME280;61798;48.048;-1.928;2022-12-29T22:48:27;100270.69;;;3.86;100.00
45050;BME280;61798;48.048;-1.928;2022-12-29T22:51:28;100287.38;;;4.05;100.00
45050;BME280;61798;48.048;-1.928;2022-12-29T22:54:07;100252.56;;;3.73;100.00
45050;BME280;61798;48.048;-1.928;2022-12-29T22:56:32;100247.47;;;3.80;100.00
45050;BME280;61798;48.048;-1.928;2022-12-29T22:59:37;100303.59;;;4.02;100.00
45050;BME280;61798;48.048;-1.928;2022-12-29T23:02:38;100241.50;;;3.78;100.00
45050;BME280;61798;48.048;-1.928;2022-12-29T23:05:05;100289.84;;;4.07;100.00
45050;BME280;61798;48.048;-1.928;2022-12-29T23:08:43;100222.16;;;3.59;100.00
45050;BME280;61798;48.048;-1.928;2022-12-29T23:11:39;100280.03;;;3.99;100.00
45050;BME280;61798;48.048;-1.928;2022-12-29T23:14:28;100289.00;;;4.06;100.00
45050;BME280;61798;48.048;-1.928;2022-12-29T23:17:50;100188.72;;;3.58;100.00
45050;BME280;61798;48.048;-1.928;2022-12-29T23:20:49;100253.44;;;4.17;100.00
45050;BME280;61798;48.048;-1.928;2022-12-29T23:28:15;100253.94;;;4.21;100.00
45050;BME280;61798;48.048;-1.928;2022-12-29T23:38:50;100219.75;;;4.09;100.00
45050;BME280;61798;48.048;-1.928;2022-12-29T23:44:43;100208.00;;;4.12;100.00
45050;BME280;61798;48.048;-1.928;2022-12-29T23:47:16;100230.75;;;4.31;100.00
45050;BME280;61798;48.048;-1.928;2022-12-29T23:49:40;100137.78;;;3.73;100.00
45050;BME280;61798;48.048;-1.928;2022-12-29T23:58:40;100125.13;;;3.66;100.00
